createdAt,value
2018-04-02T00:02:42.094Z,14.37
2018-04-02T00:05:46.081Z,13.20
2018-04-02T00:08:49.508Z,15.13
2018-04-02T00:11:52.822Z,14.63
2018-04-02T00:14:56.150Z,13.70
2018-04-02T00:17:59.449Z,13.80
2018-04-02T00:21:02.770Z,13.47
2018-04-02T00:24:06.063Z,12.37
2018-04-02T00:27:09.400Z,12.60
2018-04-02T00:30:12.711Z,13.37
2018-04-02T00:33:16.799Z,14.30
2018-04-02T00:36:20.107Z,13.27
2018-04-02T00:39:23.430Z,12.03
2018-04-02T00:42:27.527Z,14.27
2018-04-02T00:45:31.607Z,13.87
2018-04-02T00:48:34.931Z,12.97
2018-04-02T00:51:38.260Z,10.70
2018-04-02T00:54:41.587Z,11.27
2018-04-02T00:57:44.885Z,12.27
2018-04-02T01:00:48.210Z,11.53
2018-04-02T01:03:51.533Z,13.90
2018-04-02T01:06:55.635Z,13.50
2018-04-02T01:09:58.938Z,12.57
2018-04-02T01:13:03.030Z,14.83
2018-04-02T01:16:06.336Z,12.93
2018-04-02T01:19:09.658Z,14.17
2018-04-02T01:22:13.758Z,11.90
2018-04-02T01:25:17.064Z,11.70
2018-04-02T01:28:21.171Z,12.57
2018-04-02T01:31:25.247Z,14.37
2018-04-02T01:34:28.562Z,13.13
2018-04-02T01:37:31.867Z,15.87
2018-04-02T01:40:35.203Z,19.47
2018-04-02T01:43:38.513Z,19.30
2018-04-02T01:46:41.851Z,15.53
2018-04-02T01:49:45.157Z,15.60
2018-04-02T01:52:48.485Z,14.50
2018-04-02T01:55:51.806Z,12.23
2018-04-02T01:58:55.134Z,15.50
2018-04-02T02:01:58.451Z,14.50
2018-04-02T02:05:01.768Z,12.33
2018-04-02T02:08:05.087Z,17.07
2018-04-02T02:11:08.395Z,10.70
2018-04-02T02:14:11.710Z,11.60
2018-04-02T02:17:15.079Z,10.97
2018-04-02T02:20:19.122Z,11.73
2018-04-02T02:23:22.439Z,11.13
2018-04-02T02:26:25.739Z,9.73
2018-04-02T02:29:29.072Z,10.10
2018-04-02T02:32:32.372Z,8.97
2018-04-02T02:35:35.686Z,10.53
2018-04-02T02:38:39.004Z,11.77
2018-04-02T02:41:42.303Z,8.63
2018-04-02T02:44:45.632Z,11.83
2018-04-02T02:47:49.751Z,8.03
2018-04-02T02:50:53.814Z,9.13
2018-04-02T02:53:57.140Z,9.73
2018-04-02T02:57:01.243Z,9.07
2018-04-02T03:00:04.551Z,11.33
2018-04-02T03:03:07.874Z,11.57
2018-04-02T03:06:11.178Z,7.40
2018-04-02T03:09:14.494Z,8.67
2018-04-02T03:12:18.580Z,9.60
2018-04-02T03:15:21.879Z,9.27
2018-04-02T03:18:25.202Z,11.10
2018-04-02T03:21:28.522Z,11.20
2018-04-02T03:24:31.845Z,7.90
2018-04-02T03:27:35.914Z,8.07
2018-04-02T03:30:39.232Z,12.00
2018-04-02T03:33:42.562Z,10.87
2018-04-02T03:36:46.622Z,8.13
2018-04-02T03:39:49.943Z,9.47
2018-04-02T03:42:53.250Z,10.10
2018-04-02T03:45:56.575Z,11.93
2018-04-02T03:49:00.635Z,8.70
2018-04-02T03:52:03.946Z,9.40
2018-04-02T03:55:07.243Z,11.10
2018-04-02T03:58:10.562Z,10.27
2018-04-02T04:01:14.627Z,7.03
2018-04-02T04:04:17.951Z,7.37
2018-04-02T04:07:21.251Z,8.50
2018-04-02T04:10:24.570Z,12.77
2018-04-02T04:13:28.649Z,9.77
2018-04-02T04:16:31.947Z,6.27
2018-04-02T04:19:35.282Z,11.97
2018-04-02T04:22:39.355Z,11.57
2018-04-02T04:25:42.679Z,10.30
2018-04-02T04:28:45.993Z,6.93
2018-04-02T04:31:50.076Z,9.73
2018-04-02T04:34:53.400Z,10.20
2018-04-02T04:37:57.478Z,8.23
2018-04-02T04:41:00.798Z,6.20
2018-04-02T04:44:04.102Z,8.80
2018-04-02T04:47:08.192Z,6.27
2018-04-02T04:50:11.482Z,7.57
2018-04-02T04:53:14.806Z,6.93
2018-04-02T04:56:18.871Z,9.17
2018-04-02T04:59:22.225Z,9.87
2018-04-02T05:02:25.506Z,6.17
2018-04-02T05:05:28.807Z,3.77
2018-04-02T05:08:32.894Z,6.10
2018-04-02T05:11:36.182Z,9.40
2018-04-02T05:14:39.491Z,5.50
2018-04-02T05:17:42.802Z,5.70
2018-04-02T05:20:46.886Z,5.47
2018-04-02T05:23:50.188Z,7.00
2018-04-02T05:26:53.504Z,4.27
2018-04-02T05:29:56.806Z,9.77
2018-04-02T05:33:00.124Z,6.70
2018-04-02T05:36:04.209Z,3.93
2018-04-02T05:39:07.502Z,6.10
2018-04-02T05:42:10.823Z,4.77
2018-04-02T05:45:14.900Z,5.23
2018-04-02T05:48:18.214Z,4.37
2018-04-02T05:51:21.514Z,6.77
2018-04-02T05:54:24.842Z,8.23
2018-04-02T05:57:28.144Z,4.30
2018-04-02T06:00:31.467Z,8.90
2018-04-02T06:03:34.779Z,10.70
2018-04-02T06:06:38.102Z,4.43
2018-04-02T06:09:42.218Z,6.30
2018-04-02T06:12:45.512Z,9.23
2018-04-02T06:15:48.839Z,9.00
2018-04-02T06:18:52.133Z,6.83
2018-04-02T06:21:55.445Z,8.87
2018-04-02T06:24:58.736Z,6.87
2018-04-02T06:28:02.042Z,9.60
2018-04-02T06:31:05.339Z,7.90
2018-04-02T06:34:08.659Z,8.30
2018-04-02T06:37:11.993Z,5.87
2018-04-02T06:40:15.275Z,4.23
2018-04-02T06:43:18.586Z,7.30
2018-04-02T06:46:22.646Z,5.40
2018-04-02T06:49:25.975Z,7.97
2018-04-02T06:52:29.266Z,9.97
2018-04-02T06:55:32.574Z,5.77
2018-04-02T06:58:35.862Z,2.70
2018-04-02T07:01:39.174Z,4.77
2018-04-02T07:04:42.486Z,8.37
2018-04-02T07:07:45.782Z,3.47
2018-04-02T07:10:57.147Z,6.50
2018-04-02T07:14:00.573Z,4.87
2018-04-02T07:17:04.905Z,3.13
2018-04-02T07:20:08.243Z,3.77
2018-04-02T07:23:11.567Z,3.53
2018-04-02T07:26:15.631Z,7.83
2018-04-02T07:29:18.942Z,5.23
2018-04-02T07:32:22.243Z,5.53
2018-04-02T07:35:25.562Z,3.53
2018-04-02T07:38:28.859Z,6.63
2018-04-02T07:41:38.520Z,4.97
2018-04-02T07:44:43.677Z,7.77
2018-04-02T07:47:47.145Z,7.43
2018-04-02T07:50:51.230Z,5.20
2018-04-02T07:53:54.528Z,5.40
2018-04-02T07:56:57.842Z,5.30
2018-04-02T08:00:01.138Z,3.63
2018-04-02T08:03:04.454Z,3.43
2018-04-02T08:06:08.526Z,5.13
2018-04-02T08:09:11.831Z,3.50
2018-04-02T08:12:15.151Z,5.93
2018-04-02T08:15:18.447Z,2.93
2018-04-02T08:18:21.771Z,5.97
2018-04-02T08:21:25.092Z,4.63
2018-04-02T08:24:28.398Z,4.40
2018-04-02T08:27:31.715Z,6.50
2018-04-02T08:30:35.028Z,3.53
2018-04-02T08:33:38.318Z,4.00
2018-04-02T08:36:41.639Z,5.97
2018-04-02T08:39:45.704Z,3.97
2018-04-02T08:42:49.028Z,6.90
2018-04-02T08:45:52.339Z,7.43
2018-04-02T08:48:56.418Z,3.47
2018-04-02T08:51:59.716Z,11.63
2018-04-02T08:55:03.032Z,6.10
2018-04-02T08:58:06.331Z,5.70
2018-04-02T09:01:09.649Z,3.17
2018-04-02T09:04:13.711Z,5.37
2018-04-02T09:07:17.039Z,4.23
2018-04-02T09:10:20.338Z,4.53
2018-04-02T09:13:24.426Z,3.20
2018-04-02T09:16:27.719Z,4.30
2018-04-02T09:19:31.044Z,3.03
2018-04-02T09:22:34.362Z,6.73
2018-04-02T09:25:38.427Z,6.13
2018-04-02T09:28:41.748Z,5.10
2018-04-02T09:31:45.050Z,6.47
2018-04-02T09:34:48.362Z,3.63
2018-04-02T09:37:52.455Z,2.70
2018-04-02T09:40:55.751Z,3.13
2018-04-02T09:43:59.083Z,2.67
2018-04-02T09:47:02.382Z,3.70
2018-04-02T09:50:05.695Z,2.03
2018-04-02T09:53:08.992Z,3.03
2018-04-02T09:56:12.303Z,2.27
2018-04-02T09:59:15.682Z,3.00
2018-04-02T10:02:21.728Z,3.40
2018-04-02T10:05:25.027Z,5.63
2018-04-02T10:08:28.347Z,4.47
2018-04-02T10:11:31.682Z,9.30
2018-04-02T10:14:34.975Z,2.77
2018-04-02T10:17:38.286Z,3.63
2018-04-02T10:20:42.381Z,3.67
2018-04-02T10:23:45.687Z,6.67
2018-04-02T10:26:49.786Z,5.07
2018-04-02T10:29:53.109Z,9.97
2018-04-02T10:32:57.186Z,2.20
2018-04-02T10:36:00.478Z,6.20
2018-04-02T10:39:03.803Z,4.80
2018-04-02T10:42:07.106Z,1.83
2018-04-02T10:45:10.421Z,3.07
2018-04-02T10:48:13.719Z,2.50
2018-04-02T10:51:17.030Z,3.30
2018-04-02T10:54:20.327Z,4.57
2018-04-02T10:57:24.418Z,3.10
2018-04-02T11:00:28.476Z,2.43
2018-04-02T11:03:31.791Z,2.87
2018-04-02T11:06:35.086Z,3.83
2018-04-02T11:09:38.398Z,4.43
2018-04-02T11:12:41.702Z,3.37
2018-04-02T11:15:44.997Z,5.00
2018-04-02T11:18:48.318Z,5.90
2018-04-02T11:21:52.391Z,2.80
2018-04-02T11:24:55.702Z,4.00
2018-04-02T11:27:59.010Z,3.00
2018-04-02T11:31:03.068Z,2.17
2018-04-02T11:34:06.378Z,2.97
2018-04-02T11:37:09.679Z,2.67
2018-04-02T11:40:12.990Z,4.10
2018-04-02T11:43:16.303Z,2.87
2018-04-02T11:46:20.378Z,2.43
2018-04-02T11:49:23.683Z,3.83
2018-04-02T11:52:26.995Z,1.60
2018-04-02T11:55:30.281Z,2.80
2018-04-02T11:58:33.592Z,2.03
2018-04-02T12:01:36.918Z,4.67
2018-04-02T12:04:40.974Z,1.53
2018-04-02T12:07:44.294Z,5.63
2018-04-02T12:10:47.592Z,1.90
2018-04-02T12:13:50.946Z,1.90
2018-04-02T12:16:54.234Z,4.30
2018-04-02T12:19:57.546Z,1.67
2018-04-02T12:23:00.875Z,2.77
2018-04-02T12:26:04.217Z,2.83
2018-04-02T12:29:07.495Z,2.77
2018-04-02T12:32:11.582Z,1.47
2018-04-02T12:35:14.902Z,4.43
2018-04-02T12:38:18.964Z,2.53
2018-04-02T12:41:22.276Z,2.60
2018-04-02T12:44:25.596Z,3.90
2018-04-02T12:47:29.666Z,3.93
2018-04-02T12:50:32.981Z,1.93
2018-04-02T12:53:36.343Z,2.67
2018-04-02T12:56:39.618Z,1.80
2018-04-02T12:59:43.670Z,2.73
2018-04-02T13:02:46.979Z,3.87
2018-04-02T13:05:50.275Z,1.60
2018-04-02T13:08:53.588Z,2.00
2018-04-02T13:11:56.908Z,2.53
2018-04-02T13:15:00.223Z,3.30
2018-04-02T13:18:03.520Z,1.53
2018-04-02T13:21:06.828Z,3.20
2018-04-02T13:24:10.122Z,2.77
2018-04-02T13:27:14.206Z,2.20
2018-04-02T13:30:18.263Z,3.50
2018-04-02T13:33:21.582Z,2.27
2018-04-02T13:36:24.899Z,3.47
2018-04-02T13:39:28.214Z,3.07
2018-04-02T13:42:32.281Z,1.87
2018-04-02T13:45:35.578Z,2.40
2018-04-02T13:48:38.891Z,2.30
2018-04-02T13:51:42.191Z,4.00
2018-04-02T13:54:45.506Z,3.07
2018-04-02T13:57:49.591Z,2.60
2018-04-02T14:00:52.903Z,0.80
2018-04-02T14:03:56.231Z,4.50
2018-04-02T14:06:59.528Z,2.37
2018-04-02T14:10:02.842Z,4.10
2018-04-02T14:13:06.146Z,3.13
2018-04-02T14:16:09.479Z,1.73
2018-04-02T14:19:12.780Z,2.53
2018-04-02T14:22:16.099Z,8.17
2018-04-02T14:25:20.190Z,2.17
2018-04-02T14:28:23.517Z,1.60
2018-04-02T14:31:27.585Z,3.93
2018-04-02T14:34:30.897Z,2.53
2018-04-02T14:37:34.206Z,5.10
2018-04-02T14:40:37.494Z,2.87
2018-04-02T14:43:40.829Z,3.27
2018-04-02T14:46:44.123Z,1.70
2018-04-02T14:49:47.485Z,4.60
2018-04-02T14:52:50.742Z,3.37
2018-04-02T14:55:54.050Z,1.57
2018-04-02T14:58:58.107Z,2.70
2018-04-02T15:02:02.190Z,4.20
2018-04-02T15:05:05.486Z,2.57
2018-04-02T15:08:08.794Z,2.73
2018-04-02T15:11:12.106Z,2.03
2018-04-02T15:14:16.635Z,3.30
2018-04-02T15:17:20.718Z,2.23
2018-04-02T15:20:24.034Z,4.37
2018-04-02T15:23:27.370Z,3.07
2018-04-02T15:26:30.674Z,5.53
2018-04-02T15:29:34.034Z,4.87
2018-04-02T15:32:37.318Z,4.27
2018-04-02T15:35:40.609Z,7.43
2018-04-02T15:38:43.931Z,3.27
2018-04-02T15:41:47.226Z,3.23
2018-04-02T15:44:50.531Z,6.70
2018-04-02T15:47:54.610Z,2.63
2018-04-02T15:50:57.974Z,3.87
2018-04-02T15:54:02.856Z,3.80
2018-04-02T15:57:06.171Z,4.20
2018-04-02T16:00:09.482Z,4.60
2018-04-02T16:03:12.778Z,3.80
2018-04-02T16:06:16.091Z,2.60
2018-04-02T16:09:19.385Z,3.57
2018-04-02T16:12:22.695Z,5.47
2018-04-02T16:15:26.009Z,3.13
2018-04-02T16:18:29.371Z,2.40
2018-04-02T16:21:32.677Z,3.43
2018-04-02T16:24:35.994Z,6.20
2018-04-02T16:27:39.322Z,4.60
2018-04-02T16:30:43.438Z,4.53
2018-04-02T16:33:46.715Z,3.13
2018-04-02T16:36:50.011Z,2.80
2018-04-02T16:39:53.327Z,5.47
2018-04-02T16:42:57.422Z,5.10
2018-04-02T16:46:00.710Z,4.13
2018-04-02T16:49:04.032Z,3.27
2018-04-02T16:52:08.100Z,3.87
2018-04-02T16:55:11.421Z,4.07
2018-04-02T16:58:14.739Z,3.20
2018-04-02T17:01:18.821Z,2.20
2018-04-02T17:04:22.111Z,2.40
2018-04-02T17:07:25.424Z,5.20
2018-04-02T17:10:28.739Z,4.20
2018-04-02T17:13:32.055Z,7.77
2018-04-02T17:16:35.366Z,5.73
2018-04-02T17:19:38.684Z,4.93
2018-04-02T17:22:42.003Z,8.37
2018-04-02T17:25:45.331Z,4.90
2018-04-02T17:28:49.398Z,3.23
2018-04-02T17:31:52.714Z,3.67
2018-04-02T17:34:56.036Z,5.90
2018-04-02T17:38:00.123Z,5.43
2018-04-02T17:41:03.426Z,6.07
2018-04-02T17:44:06.754Z,3.73
2018-04-02T17:47:10.814Z,4.60
2018-04-02T17:50:14.124Z,8.33
2018-04-02T17:53:17.452Z,5.43
2018-04-02T17:56:21.506Z,4.33
2018-04-02T17:59:24.822Z,5.80
2018-04-02T18:02:28.142Z,5.37
2018-04-02T18:05:31.450Z,5.37
2018-04-02T18:08:35.534Z,5.33
2018-04-02T18:11:38.846Z,5.80
2018-04-02T18:14:42.147Z,6.23
2018-04-02T18:17:45.458Z,5.30
2018-04-02T18:20:49.513Z,7.07
2018-04-02T18:23:52.830Z,10.90
2018-04-02T18:26:56.130Z,7.00
2018-04-02T18:29:59.442Z,7.17
2018-04-02T18:33:02.758Z,5.50
2018-04-02T18:36:06.820Z,6.37
2018-04-02T18:39:10.135Z,4.93
2018-04-02T18:42:13.436Z,8.80
2018-04-02T18:45:16.766Z,9.97
2018-04-02T18:48:20.827Z,7.37
2018-04-02T18:51:24.143Z,7.07
2018-04-02T18:54:27.443Z,6.57
2018-04-02T18:57:30.763Z,6.87
2018-04-02T19:00:34.823Z,7.07
2018-04-02T19:03:38.144Z,6.47
2018-04-02T19:06:41.454Z,5.23
2018-04-02T19:09:44.768Z,6.80
2018-04-02T19:12:48.835Z,6.87
2018-04-02T19:15:52.156Z,6.33
2018-04-02T19:18:55.470Z,7.30
2018-04-02T19:21:58.767Z,6.90
2018-04-02T19:25:02.848Z,7.80
2018-04-02T19:28:06.158Z,6.47
2018-04-02T19:31:09.487Z,8.40
2018-04-02T19:34:13.551Z,5.17
2018-04-02T19:37:16.882Z,7.27
2018-04-02T19:40:20.946Z,7.17
2018-04-02T19:43:24.255Z,7.40
2018-04-02T19:46:27.555Z,7.67
2018-04-02T19:49:30.872Z,7.63
2018-04-02T19:52:34.170Z,10.00
2018-04-02T19:55:37.487Z,8.83
2018-04-02T19:58:41.555Z,10.00
2018-04-02T20:01:44.871Z,9.17
2018-04-02T20:04:48.171Z,10.67
2018-04-02T20:07:51.495Z,9.77
2018-04-02T20:10:55.558Z,7.03
2018-04-02T20:13:58.885Z,9.70
2018-04-02T20:17:02.178Z,10.63
2018-04-02T20:20:05.493Z,13.47
2018-04-02T20:23:08.879Z,14.43
2018-04-02T20:26:12.162Z,10.03
2018-04-02T20:29:15.495Z,12.03
2018-04-02T20:32:18.793Z,10.50
2018-04-02T20:35:22.131Z,8.80
2018-04-02T20:38:25.422Z,9.17
2018-04-02T20:41:28.735Z,9.13
2018-04-02T20:44:32.039Z,12.13
2018-04-02T20:47:35.346Z,9.77
2018-04-02T20:50:38.663Z,11.90
2018-04-02T20:53:42.750Z,9.37
2018-04-02T20:56:46.051Z,11.60
2018-04-02T20:59:49.367Z,12.60
2018-04-02T21:02:53.427Z,13.93
2018-04-02T21:05:56.735Z,11.70
2018-04-02T21:09:00.027Z,12.67
2018-04-02T21:12:03.346Z,12.13
2018-04-02T21:15:06.663Z,10.73
2018-04-02T21:18:10.756Z,14.17
2018-04-02T21:21:14.092Z,18.07
2018-04-02T21:24:17.401Z,13.77
2018-04-02T21:27:20.720Z,12.47
2018-04-02T21:30:24.023Z,15.43
2018-04-02T21:33:27.376Z,12.40
2018-04-02T21:36:30.679Z,14.30
2018-04-02T21:39:34.007Z,16.93
2018-04-02T21:42:37.356Z,19.47
2018-04-02T21:45:41.422Z,14.23
2018-04-02T21:48:44.766Z,14.93
2018-04-02T21:51:48.826Z,18.13
2018-04-02T21:54:52.151Z,15.37
2018-04-02T21:57:55.450Z,17.10
2018-04-02T22:00:58.776Z,19.70
2018-04-02T22:04:02.855Z,19.07
2018-04-02T22:07:07.088Z,21.70
2018-04-02T22:10:10.398Z,19.90
2018-04-02T22:13:15.203Z,22.47
2018-04-02T22:16:18.506Z,20.10
2018-04-02T22:19:21.822Z,21.07
2018-04-02T22:22:25.914Z,21.57
2018-04-02T22:25:29.249Z,22.67
2018-04-02T22:28:32.577Z,21.20
2018-04-02T22:31:35.888Z,25.30
2018-04-02T22:34:39.206Z,21.80
2018-04-02T22:37:42.506Z,21.00
2018-04-02T22:40:45.859Z,21.00
2018-04-02T22:43:49.163Z,19.87
2018-04-02T22:46:52.483Z,22.83
2018-04-02T22:49:55.794Z,17.83
2018-04-02T22:52:59.879Z,22.57
2018-04-02T22:56:03.217Z,19.03
2018-04-02T22:59:07.286Z,17.47
2018-04-02T23:02:10.620Z,19.87
2018-04-02T23:05:14.686Z,16.73
2018-04-02T23:08:18.012Z,16.50
2018-04-02T23:11:21.345Z,20.83
2018-04-02T23:14:24.690Z,19.43
2018-04-02T23:17:27.990Z,17.40
2018-04-02T23:20:31.295Z,21.37
2018-04-02T23:23:34.627Z,17.63
2018-04-02T23:26:38.699Z,19.00
2018-04-02T23:29:42.013Z,20.03
2018-04-02T23:32:45.317Z,22.03
2018-04-02T23:35:49.403Z,17.00
2018-04-02T23:38:52.724Z,19.67
2018-04-02T23:41:56.031Z,17.13
2018-04-02T23:45:00.127Z,21.40
2018-04-02T23:48:03.434Z,23.77
2018-04-02T23:51:06.759Z,18.87
2018-04-02T23:54:10.070Z,19.87
2018-04-02T23:57:13.383Z,19.63
